createdAt,value
2022-08-29T00:01:21.403Z,35.83
2022-08-29T00:03:50.574Z,39.53
2022-08-29T00:06:19.895Z,35.22
2022-08-29T00:08:47.387Z,35.67
2022-08-29T00:11:15.194Z,28.73
2022-08-29T00:13:42.535Z,37.40
2022-08-29T00:16:09.989Z,38.20
2022-08-29T00:18:37.418Z,33.70
2022-08-29T00:21:04.921Z,39.88
2022-08-29T00:23:32.274Z,32.35
2022-08-29T00:26:00.606Z,32.28
2022-08-29T00:28:28.119Z,28.77
2022-08-29T00:30:55.387Z,33.35
2022-08-29T00:33:22.846Z,32.70
2022-08-29T00:35:50.346Z,32.78
2022-08-29T00:38:18.271Z,32.13
2022-08-29T00:40:54.159Z,27.23
2022-08-29T00:43:24.703Z,29.80
2022-08-29T00:46:19.960Z,29.27
2022-08-29T00:48:50.370Z,28.65
2022-08-29T00:51:20.671Z,28.92
2022-08-29T00:53:54.369Z,26.30
2022-08-29T00:56:21.743Z,29.20
2022-08-29T00:58:52.133Z,27.50
2022-08-29T01:01:20.031Z,27.00
2022-08-29T01:03:47.751Z,32.78
2022-08-29T01:06:15.036Z,38.65
2022-08-29T01:08:42.763Z,27.98
2022-08-29T01:11:30.319Z,25.48
2022-08-29T01:13:57.837Z,30.58
2022-08-29T01:16:25.343Z,29.88
2022-08-29T01:18:54.281Z,19.13
2022-08-29T01:21:35.077Z,20.90
2022-08-29T01:24:23.055Z,23.05
2022-08-29T01:26:50.304Z,19.83
2022-08-29T01:29:17.569Z,24.75
2022-08-29T01:31:55.960Z,22.98
2022-08-29T01:34:25.737Z,20.00
2022-08-29T01:36:55.567Z,24.25
2022-08-29T01:39:26.620Z,22.90
2022-08-29T01:41:54.010Z,18.27
2022-08-29T01:44:22.901Z,21.52
2022-08-29T01:46:51.541Z,21.10
2022-08-29T01:49:19.025Z,23.08
2022-08-29T01:51:46.338Z,16.15
2022-08-29T01:54:14.076Z,17.42
2022-08-29T01:56:44.024Z,22.30
2022-08-29T01:59:14.221Z,36.10
2022-08-29T02:01:44.146Z,22.67
2022-08-29T02:04:11.912Z,22.42
2022-08-29T02:06:40.275Z,22.27
2022-08-29T02:09:08.156Z,18.70
2022-08-29T02:14:07.376Z,20.27
2022-08-29T02:16:42.777Z,18.23
2022-08-29T02:19:10.103Z,22.27
2022-08-29T02:21:37.811Z,18.80
2022-08-29T02:24:24.056Z,20.92
2022-08-29T02:26:53.682Z,20.13
2022-08-29T02:29:20.995Z,19.05
2022-08-29T02:31:48.786Z,25.45
2022-08-29T02:34:16.500Z,19.85
2022-08-29T02:36:46.491Z,27.63
2022-08-29T02:39:17.388Z,33.40
2022-08-29T02:41:44.901Z,30.95
2022-08-29T02:44:12.150Z,31.85
2022-08-29T02:46:39.529Z,33.55
2022-08-29T02:49:06.900Z,38.90
2022-08-29T02:51:34.737Z,44.38
2022-08-29T02:54:02.337Z,40.70
2022-08-29T02:56:30.073Z,48.08
2022-08-29T02:58:57.788Z,41.58
2022-08-29T03:01:26.140Z,38.78
2022-08-29T03:03:54.058Z,36.85
2022-08-29T03:06:21.550Z,36.72
2022-08-29T03:08:49.505Z,37.15
2022-08-29T03:11:17.420Z,41.70
2022-08-29T03:13:45.264Z,34.97
2022-08-29T03:16:13.559Z,34.28
2022-08-29T03:18:41.299Z,41.58
2022-08-29T03:21:16.725Z,43.22
2022-08-29T03:23:44.049Z,44.40
2022-08-29T03:26:11.428Z,48.63
2022-08-29T03:28:39.775Z,46.05
2022-08-29T03:31:07.574Z,45.20
2022-08-29T03:33:36.462Z,41.88
2022-08-29T03:36:07.349Z,42.55
2022-08-29T03:38:43.711Z,47.65
2022-08-29T03:41:11.187Z,36.83
2022-08-29T03:43:38.731Z,31.92
2022-08-29T03:46:06.411Z,31.92
2022-08-29T03:48:33.946Z,33.13
2022-08-29T03:51:01.284Z,28.95
2022-08-29T03:53:28.813Z,28.73
2022-08-29T03:55:58.309Z,28.38
2022-08-29T03:58:25.584Z,26.75
2022-08-29T04:00:52.917Z,24.35
2022-08-29T04:03:20.360Z,22.00
2022-08-29T04:05:55.265Z,29.33
2022-08-29T04:08:23.773Z,28.92
2022-08-29T04:10:51.162Z,27.10
2022-08-29T04:13:18.719Z,23.25
2022-08-29T04:15:47.248Z,21.83
2022-08-29T04:18:15.623Z,26.00
2022-08-29T04:20:48.713Z,21.90
2022-08-29T04:23:16.020Z,26.27
2022-08-29T04:25:43.547Z,27.05
2022-08-29T04:28:12.311Z,22.27
2022-08-29T04:30:40.320Z,18.83
2022-08-29T04:33:07.605Z,22.60
2022-08-29T04:35:37.322Z,16.55
2022-08-29T04:38:04.609Z,20.05
2022-08-29T04:40:31.977Z,19.35
2022-08-29T04:42:59.590Z,19.80
2022-08-29T04:45:26.876Z,21.08
2022-08-29T04:47:54.516Z,18.17
2022-08-29T04:50:22.707Z,19.35
2022-08-29T04:52:50.667Z,20.83
2022-08-29T04:55:21.675Z,22.80
2022-08-29T04:57:53.298Z,17.25
2022-08-29T05:00:23.283Z,21.25
2022-08-29T05:02:50.759Z,23.17
2022-08-29T05:05:18.143Z,16.23
2022-08-29T05:07:48.394Z,24.25
2022-08-29T05:10:17.634Z,19.70
2022-08-29T05:12:45.180Z,19.83
2022-08-29T05:15:15.129Z,24.17
2022-08-29T05:17:43.087Z,23.13
2022-08-29T05:20:10.933Z,33.70
2022-08-29T05:22:38.675Z,35.90
2022-08-29T05:25:06.634Z,34.65
2022-08-29T05:27:34.025Z,35.85
2022-08-29T05:30:01.681Z,32.47
2022-08-29T05:32:29.325Z,30.58
2022-08-29T05:34:56.638Z,26.63
2022-08-29T05:37:23.877Z,29.90
2022-08-29T05:39:51.158Z,22.50
2022-08-29T05:42:19.896Z,29.95
2022-08-29T05:44:47.439Z,20.95
2022-08-29T05:47:17.947Z,26.98
2022-08-29T05:49:46.018Z,23.47
2022-08-29T05:52:14.867Z,22.20
2022-08-29T05:54:42.573Z,24.13
2022-08-29T05:57:14.204Z,20.02
2022-08-29T05:59:44.411Z,13.50
2022-08-29T06:02:11.999Z,20.85
2022-08-29T06:04:40.272Z,19.33
2022-08-29T06:07:08.298Z,22.98
2022-08-29T06:09:36.380Z,20.25
2022-08-29T06:12:04.330Z,23.08
2022-08-29T06:14:31.725Z,22.17
2022-08-29T06:16:59.384Z,21.27
2022-08-29T06:19:26.889Z,23.63
2022-08-29T06:21:57.363Z,27.88
2022-08-29T06:24:24.644Z,32.05
2022-08-29T06:26:51.944Z,28.17
2022-08-29T06:29:19.441Z,26.00
2022-08-29T06:31:46.834Z,23.10
2022-08-29T06:34:14.386Z,25.55
2022-08-29T06:36:41.693Z,23.88
2022-08-29T06:39:09.943Z,22.40
2022-08-29T06:41:38.494Z,20.02
2022-08-29T06:44:05.856Z,21.65
2022-08-29T06:46:35.327Z,23.55
2022-08-29T06:49:04.020Z,25.27
2022-08-29T06:51:33.355Z,21.73
2022-08-29T06:54:07.087Z,25.33
2022-08-29T06:56:36.590Z,24.25
2022-08-29T06:59:05.364Z,23.95
2022-08-29T07:01:34.665Z,25.55
2022-08-29T07:04:02.323Z,24.10
2022-08-29T07:06:31.212Z,24.17
2022-08-29T07:08:58.852Z,30.10
2022-08-29T07:11:28.121Z,30.27
2022-08-29T07:13:56.847Z,29.23
2022-08-29T07:16:24.124Z,25.27
2022-08-29T07:18:53.654Z,31.35
2022-08-29T07:21:22.024Z,36.28
2022-08-29T07:23:50.293Z,25.13
2022-08-29T07:26:39.016Z,36.00
2022-08-29T07:29:09.573Z,27.92
2022-08-29T07:31:39.274Z,24.63
2022-08-29T07:34:07.166Z,19.83
2022-08-29T07:36:34.868Z,28.33
2022-08-29T07:39:03.891Z,28.58
2022-08-29T07:41:31.184Z,21.33
2022-08-29T07:43:58.514Z,24.92
2022-08-29T07:46:27.008Z,23.15
2022-08-29T07:48:54.700Z,25.08
2022-08-29T07:51:23.107Z,23.65
2022-08-29T07:53:51.425Z,24.85
2022-08-29T07:56:24.721Z,30.33
2022-08-29T07:58:52.725Z,18.85
2022-08-29T08:01:21.462Z,21.05
2022-08-29T08:03:50.638Z,22.75
2022-08-29T08:06:19.773Z,22.77
2022-08-29T08:08:47.971Z,24.67
2022-08-29T08:11:15.353Z,24.58
2022-08-29T08:13:42.771Z,25.83
2022-08-29T08:16:21.392Z,21.00
2022-08-29T08:18:52.246Z,23.25
2022-08-29T08:21:19.800Z,21.55
2022-08-29T08:23:47.233Z,22.92
2022-08-29T08:26:14.734Z,22.25
2022-08-29T08:28:42.250Z,20.80
2022-08-29T08:31:10.324Z,29.10
2022-08-29T08:33:40.304Z,23.40
2022-08-29T08:36:19.851Z,22.88
2022-08-29T08:38:47.800Z,23.98
2022-08-29T08:41:27.519Z,24.38
2022-08-29T08:44:07.138Z,31.45
2022-08-29T08:46:42.104Z,21.50
2022-08-29T08:49:12.728Z,28.52
2022-08-29T08:54:08.966Z,31.42
2022-08-29T08:56:42.808Z,15.70
2022-08-29T08:59:33.259Z,23.08
2022-08-29T09:04:59.872Z,22.00
2022-08-29T09:08:04.729Z,22.85
2022-08-29T09:11:01.385Z,25.40
2022-08-29T09:13:36.733Z,17.88
2022-08-29T09:16:17.447Z,25.08
2022-08-29T09:18:52.842Z,19.25
2022-08-29T09:21:40.454Z,18.70
2022-08-29T09:24:10.528Z,19.67
2022-08-29T09:26:38.354Z,18.70
2022-08-29T09:29:09.192Z,17.55
2022-08-29T09:31:36.638Z,14.88
2022-08-29T09:34:06.093Z,19.05
2022-08-29T09:36:35.411Z,19.15
2022-08-29T09:39:25.951Z,19.75
2022-08-29T09:41:57.547Z,20.73
2022-08-29T09:44:27.571Z,14.88
2022-08-29T09:49:42.450Z,17.63
2022-08-29T09:52:15.581Z,24.38
2022-08-29T09:54:43.594Z,12.55
2022-08-29T09:57:18.874Z,23.75
2022-08-29T10:00:05.838Z,16.33
2022-08-29T10:02:58.881Z,17.73
2022-08-29T10:05:33.837Z,18.58
2022-08-29T10:08:03.839Z,21.85
2022-08-29T10:10:34.728Z,22.40
2022-08-29T10:13:11.849Z,18.40
2022-08-29T10:15:50.902Z,21.80
2022-08-29T10:18:45.057Z,18.83
2022-08-29T10:21:32.063Z,20.00
2022-08-29T10:24:36.534Z,20.45
2022-08-29T10:27:09.068Z,17.75
2022-08-29T10:29:39.294Z,18.80
